sensor_id;sensor_type;location;lat;lon;timestamp;P1;durP1;ratioP1;P2;durP2;ratioP2
53549;SDS011;67273;52.914;-0.982;2023-01-30T00:01:23;2.70;;;1.30;;
53549;SDS011;67273;52.914;-0.982;2023-01-30T00:03:50;1.83;;;1.30;;
53549;SDS011;67273;52.914;-0.982;2023-01-30T00:06:16;2.28;;;1.33;;
53549;SDS011;67273;52.914;-0.982;2023-01-30T00:08:42;1.88;;;1.30;;
53549;SDS011;67273;52.914;-0.982;2023-01-30T00:11:09;2.55;;;1.25;;
53549;SDS011;67273;52.914;-0.982;2023-01-30T00:13:36;2.78;;;1.52;;
53549;SDS011;67273;52.914;-0.982;2023-01-30T00:16:02;2.05;;;1.20;;
53549;SDS011;67273;52.914;-0.982;2023-01-30T00:18:30;2.55;;;1.25;;
53549;SDS011;67273;52.914;-0.982;2023-01-30T00:20:55;1.45;;;1.13;;
53549;SDS011;67273;52.914;-0.982;2023-01-30T00:23:21;2.60;;;1.30;;
53549;SDS011;67273;52.914;-0.982;2023-01-30T00:25:47;2.70;;;1.58;;
53549;SDS011;67273;52.914;-0.982;2023-01-30T00:28:13;2.08;;;1.23;;
53549;SDS011;67273;52.914;-0.982;2023-01-30T00:30:40;2.78;;;1.30;;
53549;SDS011;67273;52.914;-0.982;2023-01-30T00:33:05;2.55;;;1.38;;
53549;SDS011;67273;52.914;-0.982;2023-01-30T00:35:33;2.80;;;1.35;;
53549;SDS011;67273;52.914;-0.982;2023-01-30T00:37:59;3.00;;;1.60;;
53549;SDS011;67273;52.914;-0.982;2023-01-30T00:40:25;3.03;;;1.52;;
53549;SDS011;67273;52.914;-0.982;2023-01-30T00:42:53;3.13;;;1.42;;
53549;SDS011;67273;52.914;-0.982;2023-01-30T00:45:37;3.90;;;1.45;;
53549;SDS011;67273;52.914;-0.982;2023-01-30T00:48:25;3.28;;;1.70;;
53549;SDS011;67273;52.914;-0.982;2023-01-30T00:50:53;3.78;;;1.67;;
53549;SDS011;67273;52.914;-0.982;2023-01-30T00:53:18;3.90;;;1.67;;
53549;SDS011;67273;52.914;-0.982;2023-01-30T00:55:44;3.35;;;1.73;;
53549;SDS011;67273;52.914;-0.982;2023-01-30T00:58:10;6.25;;;1.90;;
53549;SDS011;67273;52.914;-0.982;2023-01-30T01:00:36;5.90;;;1.90;;
53549;SDS011;67273;52.914;-0.982;2023-01-30T01:03:03;3.67;;;1.63;;
53549;SDS011;67273;52.914;-0.982;2023-01-30T01:05:29;4.47;;;1.90;;
53549;SDS011;67273;52.914;-0.982;2023-01-30T01:07:56;5.55;;;2.03;;
53549;SDS011;67273;52.914;-0.982;2023-01-30T01:10:22;4.97;;;2.00;;
53549;SDS011;67273;52.914;-0.982;2023-01-30T01:12:48;4.63;;;1.98;;
53549;SDS011;67273;52.914;-0.982;2023-01-30T01:15:16;4.05;;;1.83;;
53549;SDS011;67273;52.914;-0.982;2023-01-30T01:17:43;3.53;;;1.95;;
53549;SDS011;67273;52.914;-0.982;2023-01-30T01:20:09;5.03;;;2.03;;
53549;SDS011;67273;52.914;-0.982;2023-01-30T01:22:36;5.03;;;2.13;;
53549;SDS011;67273;52.914;-0.982;2023-01-30T01:25:03;4.40;;;1.92;;
53549;SDS011;67273;52.914;-0.982;2023-01-30T01:27:30;6.22;;;2.10;;
53549;SDS011;67273;52.914;-0.982;2023-01-30T01:29:56;6.22;;;2.20;;
53549;SDS011;67273;52.914;-0.982;2023-01-30T01:32:22;6.38;;;2.22;;
53549;SDS011;67273;52.914;-0.982;2023-01-30T01:34:48;5.90;;;2.08;;
53549;SDS011;67273;52.914;-0.982;2023-01-30T01:37:14;6.15;;;2.40;;
53549;SDS011;67273;52.914;-0.982;2023-01-30T01:39:41;5.32;;;2.15;;
53549;SDS011;67273;52.914;-0.982;2023-01-30T01:42:28;4.22;;;2.10;;
53549;SDS011;67273;52.914;-0.982;2023-01-30T01:44:59;4.63;;;2.33;;
53549;SDS011;67273;52.914;-0.982;2023-01-30T01:47:38;6.25;;;2.05;;
53549;SDS011;67273;52.914;-0.982;2023-01-30T01:50:08;5.75;;;2.28;;
53549;SDS011;67273;52.914;-0.982;2023-01-30T01:52:36;5.07;;;1.85;;
53549;SDS011;67273;52.914;-0.982;2023-01-30T01:55:03;4.78;;;2.10;;
53549;SDS011;67273;52.914;-0.982;2023-01-30T01:57:35;4.63;;;2.10;;
53549;SDS011;67273;52.914;-0.982;2023-01-30T02:00:06;5.55;;;2.05;;
53549;SDS011;67273;52.914;-0.982;2023-01-30T02:02:40;4.85;;;2.17;;
53549;SDS011;67273;52.914;-0.982;2023-01-30T02:05:09;5.63;;;2.38;;
53549;SDS011;67273;52.914;-0.982;2023-01-30T02:07:38;5.47;;;2.08;;
53549;SDS011;67273;52.914;-0.982;2023-01-30T02:10:10;4.38;;;2.08;;
53549;SDS011;67273;52.914;-0.982;2023-01-30T02:12:41;5.88;;;2.22;;
53549;SDS011;67273;52.914;-0.982;2023-01-30T02:15:08;5.55;;;2.22;;
53549;SDS011;67273;52.914;-0.982;2023-01-30T02:17:34;5.13;;;2.28;;
53549;SDS011;67273;52.914;-0.982;2023-01-30T02:20:02;6.57;;;2.20;;
53549;SDS011;67273;52.914;-0.982;2023-01-30T02:22:49;5.70;;;2.40;;
53549;SDS011;67273;52.914;-0.982;2023-01-30T02:28:47;5.00;;;2.38;;
53549;SDS011;67273;52.914;-0.982;2023-01-30T02:31:32;7.85;;;2.55;;
53549;SDS011;67273;52.914;-0.982;2023-01-30T02:37:05;6.28;;;2.08;;
53549;SDS011;67273;52.914;-0.982;2023-01-30T02:39:43;7.55;;;2.33;;
53549;SDS011;67273;52.914;-0.982;2023-01-30T02:42:18;6.57;;;2.15;;
53549;SDS011;67273;52.914;-0.982;2023-01-30T02:44:54;5.32;;;2.33;;
53549;SDS011;67273;52.914;-0.982;2023-01-30T02:47:31;8.30;;;2.30;;
53549;SDS011;67273;52.914;-0.982;2023-01-30T02:50:05;6.72;;;2.60;;
53549;SDS011;67273;52.914;-0.982;2023-01-30T02:52:36;6.45;;;2.25;;
53549;SDS011;67273;52.914;-0.982;2023-01-30T02:55:05;5.10;;;2.20;;
53549;SDS011;67273;52.914;-0.982;2023-01-30T02:57:33;7.40;;;2.40;;
53549;SDS011;67273;52.914;-0.982;2023-01-30T03:00:00;5.30;;;2.08;;
53549;SDS011;67273;52.914;-0.982;2023-01-30T03:02:37;5.03;;;2.35;;
53549;SDS011;67273;52.914;-0.982;2023-01-30T03:05:35;5.35;;;2.10;;
53549;SDS011;67273;52.914;-0.982;2023-01-30T03:08:13;4.85;;;2.03;;
53549;SDS011;67273;52.914;-0.982;2023-01-30T03:10:49;6.28;;;2.20;;
53549;SDS011;67273;52.914;-0.982;2023-01-30T03:13:19;5.25;;;2.17;;
53549;SDS011;67273;52.914;-0.982;2023-01-30T03:15:54;5.35;;;2.15;;
53549;SDS011;67273;52.914;-0.982;2023-01-30T03:18:28;4.63;;;1.85;;
53549;SDS011;67273;52.914;-0.982;2023-01-30T03:20:54;4.68;;;1.92;;
53549;SDS011;67273;52.914;-0.982;2023-01-30T03:23:20;5.07;;;2.42;;
53549;SDS011;67273;52.914;-0.982;2023-01-30T03:25:47;4.45;;;1.92;;
53549;SDS011;67273;52.914;-0.982;2023-01-30T03:28:16;4.88;;;2.45;;
53549;SDS011;67273;52.914;-0.982;2023-01-30T03:30:47;5.43;;;2.22;;
53549;SDS011;67273;52.914;-0.982;2023-01-30T03:33:13;4.75;;;2.15;;
53549;SDS011;67273;52.914;-0.982;2023-01-30T03:35:41;5.55;;;2.10;;
53549;SDS011;67273;52.914;-0.982;2023-01-30T03:38:07;4.32;;;1.77;;
53549;SDS011;67273;52.914;-0.982;2023-01-30T03:40:33;4.38;;;1.90;;
53549;SDS011;67273;52.914;-0.982;2023-01-30T03:43:01;3.80;;;1.80;;
53549;SDS011;67273;52.914;-0.982;2023-01-30T03:45:29;4.30;;;2.03;;
53549;SDS011;67273;52.914;-0.982;2023-01-30T03:47:57;4.90;;;1.88;;
53549;SDS011;67273;52.914;-0.982;2023-01-30T03:50:23;5.30;;;2.38;;
53549;SDS011;67273;52.914;-0.982;2023-01-30T03:52:50;6.63;;;2.85;;
53549;SDS011;67273;52.914;-0.982;2023-01-30T03:55:19;6.18;;;2.22;;
53549;SDS011;67273;52.914;-0.982;2023-01-30T03:57:47;4.90;;;1.83;;
53549;SDS011;67273;52.914;-0.982;2023-01-30T04:00:14;5.32;;;2.10;;
53549;SDS011;67273;52.914;-0.982;2023-01-30T04:02:46;5.38;;;2.15;;
53549;SDS011;67273;52.914;-0.982;2023-01-30T04:05:15;5.47;;;2.05;;
53549;SDS011;67273;52.914;-0.982;2023-01-30T04:07:47;4.45;;;1.83;;
53549;SDS011;67273;52.914;-0.982;2023-01-30T04:10:14;4.63;;;1.90;;
53549;SDS011;67273;52.914;-0.982;2023-01-30T04:12:43;4.97;;;2.30;;
53549;SDS011;67273;52.914;-0.982;2023-01-30T04:15:10;5.53;;;2.08;;
53549;SDS011;67273;52.914;-0.982;2023-01-30T04:18:05;5.68;;;2.42;;
53549;SDS011;67273;52.914;-0.982;2023-01-30T04:21:09;4.45;;;1.92;;
53549;SDS011;67273;52.914;-0.982;2023-01-30T04:23:37;6.60;;;2.22;;
53549;SDS011;67273;52.914;-0.982;2023-01-30T04:26:06;5.30;;;1.98;;
53549;SDS011;67273;52.914;-0.982;2023-01-30T04:28:35;5.70;;;1.92;;
53549;SDS011;67273;52.914;-0.982;2023-01-30T04:31:02;4.70;;;2.20;;
53549;SDS011;67273;52.914;-0.982;2023-01-30T04:33:48;6.45;;;2.50;;
53549;SDS011;67273;52.914;-0.982;2023-01-30T04:36:14;5.28;;;2.25;;
53549;SDS011;67273;52.914;-0.982;2023-01-30T04:38:42;5.55;;;2.30;;
53549;SDS011;67273;52.914;-0.982;2023-01-30T04:41:09;7.05;;;2.40;;
53549;SDS011;67273;52.914;-0.982;2023-01-30T04:43:38;4.65;;;2.03;;
53549;SDS011;67273;52.914;-0.982;2023-01-30T04:46:42;4.50;;;1.92;;
53549;SDS011;67273;52.914;-0.982;2023-01-30T04:49:10;6.38;;;2.05;;
53549;SDS011;67273;52.914;-0.982;2023-01-30T04:51:36;5.38;;;2.20;;
53549;SDS011;67273;52.914;-0.982;2023-01-30T04:54:03;6.47;;;2.42;;
53549;SDS011;67273;52.914;-0.982;2023-01-30T04:56:32;6.57;;;2.35;;
53549;SDS011;67273;52.914;-0.982;2023-01-30T04:58:58;6.63;;;2.50;;
53549;SDS011;67273;52.914;-0.982;2023-01-30T05:01:29;5.20;;;1.95;;
53549;SDS011;67273;52.914;-0.982;2023-01-30T05:03:57;5.55;;;2.30;;
53549;SDS011;67273;52.914;-0.982;2023-01-30T05:06:23;6.22;;;2.30;;
53549;SDS011;67273;52.914;-0.982;2023-01-30T05:08:49;5.57;;;2.53;;
53549;SDS011;67273;52.914;-0.982;2023-01-30T05:11:17;6.97;;;2.17;;
53549;SDS011;67273;52.914;-0.982;2023-01-30T05:13:44;7.45;;;2.63;;
53549;SDS011;67273;52.914;-0.982;2023-01-30T05:16:10;7.50;;;2.70;;
53549;SDS011;67273;52.914;-0.982;2023-01-30T05:18:37;6.72;;;2.83;;
53549;SDS011;67273;52.914;-0.982;2023-01-30T05:21:03;4.93;;;2.00;;
53549;SDS011;67273;52.914;-0.982;2023-01-30T05:23:30;5.93;;;2.20;;
53549;SDS011;67273;52.914;-0.982;2023-01-30T05:25:56;5.85;;;2.40;;
53549;SDS011;67273;52.914;-0.982;2023-01-30T05:28:22;6.40;;;2.25;;
53549;SDS011;67273;52.914;-0.982;2023-01-30T05:30:49;5.38;;;2.17;;
53549;SDS011;67273;52.914;-0.982;2023-01-30T05:33:14;6.22;;;2.17;;
53549;SDS011;67273;52.914;-0.982;2023-01-30T05:35:44;6.10;;;2.47;;
53549;SDS011;67273;52.914;-0.982;2023-01-30T05:38:10;6.20;;;2.28;;
53549;SDS011;67273;52.914;-0.982;2023-01-30T05:40:36;6.40;;;2.40;;
53549;SDS011;67273;52.914;-0.982;2023-01-30T05:43:02;4.95;;;2.38;;
53549;SDS011;67273;52.914;-0.982;2023-01-30T05:45:28;5.25;;;2.42;;
53549;SDS011;67273;52.914;-0.982;2023-01-30T05:47:55;6.43;;;2.38;;
53549;SDS011;67273;52.914;-0.982;2023-01-30T05:50:21;6.20;;;2.40;;
53549;SDS011;67273;52.914;-0.982;2023-01-30T05:52:46;5.95;;;2.40;;
53549;SDS011;67273;52.914;-0.982;2023-01-30T05:55:12;6.03;;;2.38;;
53549;SDS011;67273;52.914;-0.982;2023-01-30T05:57:38;6.25;;;2.40;;
53549;SDS011;67273;52.914;-0.982;2023-01-30T06:00:04;5.40;;;2.25;;
53549;SDS011;67273;52.914;-0.982;2023-01-30T06:02:38;5.30;;;2.20;;
53549;SDS011;67273;52.914;-0.982;2023-01-30T06:05:05;5.95;;;2.20;;
53549;SDS011;67273;52.914;-0.982;2023-01-30T06:07:32;5.72;;;2.15;;
53549;SDS011;67273;52.914;-0.982;2023-01-30T06:09:57;5.20;;;2.03;;
53549;SDS011;67273;52.914;-0.982;2023-01-30T06:12:23;5.68;;;2.30;;
53549;SDS011;67273;52.914;-0.982;2023-01-30T06:14:49;6.95;;;2.55;;
53549;SDS011;67273;52.914;-0.982;2023-01-30T06:17:14;5.30;;;2.20;;
53549;SDS011;67273;52.914;-0.982;2023-01-30T06:19:40;6.50;;;2.25;;
53549;SDS011;67273;52.914;-0.982;2023-01-30T06:22:07;6.40;;;2.03;;
53549;SDS011;67273;52.914;-0.982;2023-01-30T06:24:33;5.97;;;2.47;;
53549;SDS011;67273;52.914;-0.982;2023-01-30T06:26:59;5.53;;;2.40;;
53549;SDS011;67273;52.914;-0.982;2023-01-30T06:29:24;5.25;;;1.95;;
53549;SDS011;67273;52.914;-0.982;2023-01-30T06:31:50;5.72;;;2.30;;
53549;SDS011;67273;52.914;-0.982;2023-01-30T06:34:16;4.53;;;2.00;;
53549;SDS011;67273;52.914;-0.982;2023-01-30T06:36:41;5.43;;;2.25;;
53549;SDS011;67273;52.914;-0.982;2023-01-30T06:39:09;4.07;;;2.00;;
53549;SDS011;67273;52.914;-0.982;2023-01-30T06:41:35;5.97;;;2.22;;
53549;SDS011;67273;52.914;-0.982;2023-01-30T06:44:01;6.70;;;2.42;;
53549;SDS011;67273;52.914;-0.982;2023-01-30T06:46:26;4.85;;;2.10;;
53549;SDS011;67273;52.914;-0.982;2023-01-30T06:48:52;6.78;;;2.10;;
53549;SDS011;67273;52.914;-0.982;2023-01-30T06:51:18;6.35;;;2.28;;
53549;SDS011;67273;52.914;-0.982;2023-01-30T06:53:43;5.28;;;2.20;;
53549;SDS011;67273;52.914;-0.982;2023-01-30T06:56:10;6.57;;;2.42;;
53549;SDS011;67273;52.914;-0.982;2023-01-30T06:58:36;5.47;;;2.20;;
53549;SDS011;67273;52.914;-0.982;2023-01-30T07:01:02;4.97;;;2.08;;
53549;SDS011;67273;52.914;-0.982;2023-01-30T07:03:28;4.97;;;1.95;;
53549;SDS011;67273;52.914;-0.982;2023-01-30T07:05:54;5.50;;;2.05;;
53549;SDS011;67273;52.914;-0.982;2023-01-30T07:08:20;7.75;;;2.63;;
53549;SDS011;67273;52.914;-0.982;2023-01-30T07:10:45;5.32;;;2.17;;
53549;SDS011;67273;52.914;-0.982;2023-01-30T07:13:12;5.20;;;2.08;;
53549;SDS011;67273;52.914;-0.982;2023-01-30T07:15:38;5.72;;;2.42;;
53549;SDS011;67273;52.914;-0.982;2023-01-30T07:18:04;4.75;;;2.03;;
53549;SDS011;67273;52.914;-0.982;2023-01-30T07:20:30;5.35;;;2.10;;
53549;SDS011;67273;52.914;-0.982;2023-01-30T07:22:56;5.50;;;2.22;;
53549;SDS011;67273;52.914;-0.982;2023-01-30T07:25:22;6.50;;;2.30;;
53549;SDS011;67273;52.914;-0.982;2023-01-30T07:27:49;5.45;;;2.00;;
53549;SDS011;67273;52.914;-0.982;2023-01-30T07:30:17;6.07;;;2.50;;
53549;SDS011;67273;52.914;-0.982;2023-01-30T07:32:44;7.25;;;2.67;;
53549;SDS011;67273;52.914;-0.982;2023-01-30T07:35:14;5.22;;;2.30;;
53549;SDS011;67273;52.914;-0.982;2023-01-30T07:37:39;5.43;;;2.30;;
53549;SDS011;67273;52.914;-0.982;2023-01-30T07:40:05;5.68;;;2.33;;
53549;SDS011;67273;52.914;-0.982;2023-01-30T07:42:34;6.47;;;2.35;;
53549;SDS011;67273;52.914;-0.982;2023-01-30T07:45:00;6.60;;;2.60;;
53549;SDS011;67273;52.914;-0.982;2023-01-30T07:47:27;6.07;;;2.78;;
53549;SDS011;67273;52.914;-0.982;2023-01-30T07:49:53;5.50;;;2.40;;
53549;SDS011;67273;52.914;-0.982;2023-01-30T07:52:19;6.63;;;2.50;;
53549;SDS011;67273;52.914;-0.982;2023-01-30T07:54:44;7.20;;;2.47;;
53549;SDS011;67273;52.914;-0.982;2023-01-30T07:57:10;5.88;;;2.35;;
53549;SDS011;67273;52.914;-0.982;2023-01-30T07:59:36;7.18;;;2.65;;
53549;SDS011;67273;52.914;-0.982;2023-01-30T08:02:01;6.03;;;2.40;;
53549;SDS011;67273;52.914;-0.982;2023-01-30T08:04:28;7.05;;;2.30;;
53549;SDS011;67273;52.914;-0.982;2023-01-30T08:06:54;7.03;;;3.30;;
53549;SDS011;67273;52.914;-0.982;2023-01-30T08:09:20;5.63;;;2.20;;
53549;SDS011;67273;52.914;-0.982;2023-01-30T08:11:46;6.28;;;2.30;;
53549;SDS011;67273;52.914;-0.982;2023-01-30T08:14:12;6.90;;;2.65;;
53549;SDS011;67273;52.914;-0.982;2023-01-30T08:16:38;6.45;;;2.45;;
53549;SDS011;67273;52.914;-0.982;2023-01-30T08:19:04;6.47;;;2.20;;
53549;SDS011;67273;52.914;-0.982;2023-01-30T08:21:33;7.82;;;2.58;;
53549;SDS011;67273;52.914;-0.982;2023-01-30T08:23:58;8.57;;;2.53;;
53549;SDS011;67273;52.914;-0.982;2023-01-30T08:26:24;7.68;;;2.78;;
53549;SDS011;67273;52.914;-0.982;2023-01-30T08:28:50;5.03;;;2.53;;
53549;SDS011;67273;52.914;-0.982;2023-01-30T08:31:16;7.90;;;2.83;;
53549;SDS011;67273;52.914;-0.982;2023-01-30T08:33:42;5.82;;;2.40;;
53549;SDS011;67273;52.914;-0.982;2023-01-30T08:36:08;7.68;;;2.45;;
53549;SDS011;67273;52.914;-0.982;2023-01-30T08:38:35;6.93;;;2.40;;
53549;SDS011;67273;52.914;-0.982;2023-01-30T08:41:02;4.85;;;2.05;;
53549;SDS011;67273;52.914;-0.982;2023-01-30T08:43:29;5.82;;;2.30;;
53549;SDS011;67273;52.914;-0.982;2023-01-30T08:45:55;5.78;;;2.35;;
53549;SDS011;67273;52.914;-0.982;2023-01-30T08:48:21;6.25;;;2.47;;
53549;SDS011;67273;52.914;-0.982;2023-01-30T08:50:47;5.85;;;2.30;;
53549;SDS011;67273;52.914;-0.982;2023-01-30T08:53:16;5.05;;;2.00;;
53549;SDS011;67273;52.914;-0.982;2023-01-30T08:55:43;5.78;;;2.40;;
53549;SDS011;67273;52.914;-0.982;2023-01-30T08:58:09;5.43;;;2.00;;
53549;SDS011;67273;52.914;-0.982;2023-01-30T09:00:35;5.72;;;2.28;;
53549;SDS011;67273;52.914;-0.982;2023-01-30T09:03:03;5.80;;;2.35;;
53549;SDS011;67273;52.914;-0.982;2023-01-30T09:05:29;6.68;;;2.55;;
53549;SDS011;67273;52.914;-0.982;2023-01-30T09:07:54;4.35;;;2.05;;
53549;SDS011;67273;52.914;-0.982;2023-01-30T09:10:20;6.00;;;2.55;;
53549;SDS011;67273;52.914;-0.982;2023-01-30T09:12:49;6.43;;;2.70;;
53549;SDS011;67273;52.914;-0.982;2023-01-30T09:15:15;7.43;;;2.58;;
53549;SDS011;67273;52.914;-0.982;2023-01-30T09:17:41;6.85;;;2.83;;
53549;SDS011;67273;52.914;-0.982;2023-01-30T09:20:09;6.65;;;2.63;;
53549;SDS011;67273;52.914;-0.982;2023-01-30T09:22:35;5.25;;;2.35;;
53549;SDS011;67273;52.914;-0.982;2023-01-30T09:25:01;6.07;;;2.70;;
53549;SDS011;67273;52.914;-0.982;2023-01-30T09:27:28;8.23;;;2.85;;
53549;SDS011;67273;52.914;-0.982;2023-01-30T09:29:55;6.28;;;2.70;;
53549;SDS011;67273;52.914;-0.982;2023-01-30T09:32:21;6.90;;;2.53;;
53549;SDS011;67273;52.914;-0.982;2023-01-30T09:34:46;6.95;;;2.50;;
53549;SDS011;67273;52.914;-0.982;2023-01-30T09:37:12;6.22;;;2.60;;
53549;SDS011;67273;52.914;-0.982;2023-01-30T09:39:38;6.28;;;2.70;;
53549;SDS011;67273;52.914;-0.982;2023-01-30T09:42:13;7.07;;;2.70;;
53549;SDS011;67273;52.914;-0.982;2023-01-30T09:44:58;6.88;;;2.60;;
53549;SDS011;67273;52.914;-0.982;2023-01-30T09:47:37;7.78;;;2.70;;
53549;SDS011;67273;52.914;-0.982;2023-01-30T09:50:15;8.52;;;2.78;;
53549;SDS011;67273;52.914;-0.982;2023-01-30T09:52:55;7.15;;;2.80;;
53549;SDS011;67273;52.914;-0.982;2023-01-30T09:55:28;6.90;;;2.50;;
53549;SDS011;67273;52.914;-0.982;2023-01-30T09:57:57;7.38;;;2.97;;
53549;SDS011;67273;52.914;-0.982;2023-01-30T10:00:27;6.80;;;3.03;;
53549;SDS011;67273;52.914;-0.982;2023-01-30T10:02:58;8.07;;;2.92;;
53549;SDS011;67273;52.914;-0.982;2023-01-30T10:05:30;6.43;;;3.03;;
53549;SDS011;67273;52.914;-0.982;2023-01-30T10:08:04;8.88;;;2.88;;
53549;SDS011;67273;52.914;-0.982;2023-01-30T10:10:45;7.93;;;2.78;;
53549;SDS011;67273;52.914;-0.982;2023-01-30T10:13:19;7.45;;;2.85;;
53549;SDS011;67273;52.914;-0.982;2023-01-30T10:15:55;8.73;;;2.88;;
53549;SDS011;67273;52.914;-0.982;2023-01-30T10:18:35;8.57;;;3.10;;
53549;SDS011;67273;52.914;-0.982;2023-01-30T10:26:34;8.25;;;2.95;;
53549;SDS011;67273;52.914;-0.982;2023-01-30T10:29:01;6.85;;;2.97;;
53549;SDS011;67273;52.914;-0.982;2023-01-30T10:31:33;7.78;;;2.75;;
53549;SDS011;67273;52.914;-0.982;2023-01-30T10:34:05;11.90;;;3.28;;
53549;SDS011;67273;52.914;-0.982;2023-01-30T10:36:35;10.77;;;3.80;;
53549;SDS011;67273;52.914;-0.982;2023-01-30T10:39:09;8.15;;;3.40;;
53549;SDS011;67273;52.914;-0.982;2023-01-30T10:41:50;9.45;;;3.72;;
53549;SDS011;67273;52.914;-0.982;2023-01-30T10:44:19;10.88;;;3.22;;
53549;SDS011;67273;52.914;-0.982;2023-01-30T10:46:52;9.15;;;3.50;;
53549;SDS011;67273;52.914;-0.982;2023-01-30T10:49:29;8.20;;;3.38;;
53549;SDS011;67273;52.914;-0.982;2023-01-30T10:52:01;9.38;;;3.72;;
53549;SDS011;67273;52.914;-0.982;2023-01-30T10:54:38;7.03;;;3.30;;
53549;SDS011;67273;52.914;-0.982;2023-01-30T10:57:13;8.15;;;3.42;;
53549;SDS011;67273;52.914;-0.982;2023-01-30T10:59:48;8.30;;;3.55;;
53549;SDS011;67273;52.914;-0.982;2023-01-30T11:02:23;8.13;;;3.45;;
53549;SDS011;67273;52.914;-0.982;2023-01-30T11:04:56;7.82;;;3.65;;
53549;SDS011;67273;52.914;-0.982;2023-01-30T11:07:26;8.38;;;3.45;;
53549;SDS011;67273;52.914;-0.982;2023-01-30T11:09:55;11.02;;;3.80;;
53549;SDS011;67273;52.914;-0.982;2023-01-30T11:12:22;10.27;;;3.42;;
53549;SDS011;67273;52.914;-0.982;2023-01-30T11:14:51;7.03;;;2.92;;
53549;SDS011;67273;52.914;-0.982;2023-01-30T11:17:18;8.35;;;3.67;;
53549;SDS011;67273;52.914;-0.982;2023-01-30T11:19:52;8.02;;;3.78;;
53549;SDS011;67273;52.914;-0.982;2023-01-30T11:22:19;9.43;;;3.80;;
53549;SDS011;67273;52.914;-0.982;2023-01-30T11:24:45;7.80;;;3.28;;
53549;SDS011;67273;52.914;-0.982;2023-01-30T11:27:15;7.63;;;3.08;;
53549;SDS011;67273;52.914;-0.982;2023-01-30T11:29:42;7.72;;;3.30;;
53549;SDS011;67273;52.914;-0.982;2023-01-30T11:32:11;8.07;;;3.08;;
53549;SDS011;67273;52.914;-0.982;2023-01-30T11:34:40;9.55;;;3.47;;
53549;SDS011;67273;52.914;-0.982;2023-01-30T11:37:21;8.25;;;3.08;;
53549;SDS011;67273;52.914;-0.982;2023-01-30T11:39:52;6.78;;;2.80;;
53549;SDS011;67273;52.914;-0.982;2023-01-30T11:42:19;7.18;;;3.50;;
53549;SDS011;67273;52.914;-0.982;2023-01-30T11:44:49;8.05;;;3.72;;
53549;SDS011;67273;52.914;-0.982;2023-01-30T11:47:21;8.07;;;3.28;;
53549;SDS011;67273;52.914;-0.982;2023-01-30T11:49:49;8.70;;;3.35;;
53549;SDS011;67273;52.914;-0.982;2023-01-30T11:52:24;7.88;;;3.10;;
53549;SDS011;67273;52.914;-0.982;2023-01-30T11:54:52;7.95;;;2.88;;
53549;SDS011;67273;52.914;-0.982;2023-01-30T11:57:25;7.60;;;3.10;;
53549;SDS011;67273;52.914;-0.982;2023-01-30T11:59:53;8.00;;;3.15;;
53549;SDS011;67273;52.914;-0.982;2023-01-30T12:02:22;8.02;;;3.42;;
53549;SDS011;67273;52.914;-0.982;2023-01-30T12:04:51;6.95;;;3.13;;
53549;SDS011;67273;52.914;-0.982;2023-01-30T12:07:21;7.85;;;3.10;;
53549;SDS011;67273;52.914;-0.982;2023-01-30T12:09:50;6.28;;;2.58;;
53549;SDS011;67273;52.914;-0.982;2023-01-30T12:12:25;8.98;;;3.40;;
53549;SDS011;67273;52.914;-0.982;2023-01-30T12:14:53;7.10;;;2.88;;
53549;SDS011;67273;52.914;-0.982;2023-01-30T12:17:31;8.77;;;3.58;;
53549;SDS011;67273;52.914;-0.982;2023-01-30T12:20:04;8.30;;;3.38;;
53549;SDS011;67273;52.914;-0.982;2023-01-30T12:22:43;8.30;;;3.67;;
53549;SDS011;67273;52.914;-0.982;2023-01-30T12:25:15;8.48;;;3.25;;
53549;SDS011;67273;52.914;-0.982;2023-01-30T12:27:48;10.47;;;3.60;;
53549;SDS011;67273;52.914;-0.982;2023-01-30T12:30:23;8.80;;;3.33;;
53549;SDS011;67273;52.914;-0.982;2023-01-30T12:32:55;8.00;;;3.05;;
53549;SDS011;67273;52.914;-0.982;2023-01-30T12:35:26;7.45;;;3.53;;
53549;SDS011;67273;52.914;-0.982;2023-01-30T12:38:02;6.75;;;2.90;;
53549;SDS011;67273;52.914;-0.982;2023-01-30T12:40:39;7.85;;;2.90;;
53549;SDS011;67273;52.914;-0.982;2023-01-30T12:43:28;6.07;;;2.50;;
53549;SDS011;67273;52.914;-0.982;2023-01-30T12:46:09;8.68;;;3.50;;
53549;SDS011;67273;52.914;-0.982;2023-01-30T12:48:49;17.35;;;3.53;;
53549;SDS011;67273;52.914;-0.982;2023-01-30T12:51:31;7.95;;;3.22;;
53549;SDS011;67273;52.914;-0.982;2023-01-30T12:54:18;9.63;;;3.33;;
53549;SDS011;67273;52.914;-0.982;2023-01-30T12:56:55;6.57;;;2.83;;
53549;SDS011;67273;52.914;-0.982;2023-01-30T12:59:29;9.05;;;3.30;;
53549;SDS011;67273;52.914;-0.982;2023-01-30T13:02:08;8.87;;;3.47;;
53549;SDS011;67273;52.914;-0.982;2023-01-30T13:04:52;8.48;;;3.25;;
53549;SDS011;67273;52.914;-0.982;2023-01-30T13:07:32;6.65;;;3.05;;
53549;SDS011;67273;52.914;-0.982;2023-01-30T13:10:10;8.40;;;2.97;;
53549;SDS011;67273;52.914;-0.982;2023-01-30T13:12:44;8.02;;;2.90;;
53549;SDS011;67273;52.914;-0.982;2023-01-30T13:15:18;8.52;;;2.85;;
53549;SDS011;67273;52.914;-0.982;2023-01-30T13:17:53;7.28;;;3.10;;
53549;SDS011;67273;52.914;-0.982;2023-01-30T13:20:38;10.05;;;3.88;;
53549;SDS011;67273;52.914;-0.982;2023-01-30T13:23:12;8.15;;;2.97;;
53549;SDS011;67273;52.914;-0.982;2023-01-30T13:25:43;7.85;;;3.00;;
53549;SDS011;67273;52.914;-0.982;2023-01-30T13:28:19;10.95;;;3.67;;
53549;SDS011;67273;52.914;-0.982;2023-01-30T13:30:50;10.57;;;3.15;;
53549;SDS011;67273;52.914;-0.982;2023-01-30T13:33:18;10.32;;;2.88;;
53549;SDS011;67273;52.914;-0.982;2023-01-30T13:35:48;10.05;;;3.10;;
53549;SDS011;67273;52.914;-0.982;2023-01-30T13:38:19;8.70;;;3.15;;
53549;SDS011;67273;52.914;-0.982;2023-01-30T13:40:50;7.43;;;2.88;;
53549;SDS011;67273;52.914;-0.982;2023-01-30T13:43:18;9.38;;;3.17;;
53549;SDS011;67273;52.914;-0.982;2023-01-30T13:45:48;6.93;;;2.85;;
53549;SDS011;67273;52.914;-0.982;2023-01-30T13:48:19;6.70;;;2.60;;
53549;SDS011;67273;52.914;-0.982;2023-01-30T13:51:10;6.88;;;3.13;;
53549;SDS011;67273;52.914;-0.982;2023-01-30T13:53:52;7.78;;;2.72;;
53549;SDS011;67273;52.914;-0.982;2023-01-30T13:56:25;6.35;;;2.50;;
53549;SDS011;67273;52.914;-0.982;2023-01-30T13:58:57;8.30;;;2.90;;
53549;SDS011;67273;52.914;-0.982;2023-01-30T14:04:41;7.40;;;2.63;;
53549;SDS011;67273;52.914;-0.982;2023-01-30T14:07:10;5.60;;;2.80;;
53549;SDS011;67273;52.914;-0.982;2023-01-30T14:09:40;6.53;;;2.65;;
53549;SDS011;67273;52.914;-0.982;2023-01-30T14:12:14;6.47;;;2.83;;
53549;SDS011;67273;52.914;-0.982;2023-01-30T14:14:43;7.75;;;3.05;;
53549;SDS011;67273;52.914;-0.982;2023-01-30T14:17:24;7.13;;;2.40;;
53549;SDS011;67273;52.914;-0.982;2023-01-30T14:19:55;7.72;;;2.83;;
53549;SDS011;67273;52.914;-0.982;2023-01-30T14:22:24;6.75;;;2.70;;
53549;SDS011;67273;52.914;-0.982;2023-01-30T14:37:28;7.13;;;2.55;;
53549;SDS011;67273;52.914;-0.982;2023-01-30T14:49:16;6.50;;;2.60;;
53549;SDS011;67273;52.914;-0.982;2023-01-30T14:51:51;5.80;;;2.55;;
53549;SDS011;67273;52.914;-0.982;2023-01-30T14:54:21;7.75;;;2.70;;
53549;SDS011;67273;52.914;-0.982;2023-01-30T14:56:51;6.53;;;2.83;;
53549;SDS011;67273;52.914;-0.982;2023-01-30T14:59:21;6.65;;;2.55;;
53549;SDS011;67273;52.914;-0.982;2023-01-30T15:01:53;6.20;;;2.53;;
53549;SDS011;67273;52.914;-0.982;2023-01-30T15:04:21;6.25;;;2.63;;
53549;SDS011;67273;52.914;-0.982;2023-01-30T15:06:48;6.93;;;2.53;;
53549;SDS011;67273;52.914;-0.982;2023-01-30T15:09:16;6.60;;;2.85;;
53549;SDS011;67273;52.914;-0.982;2023-01-30T15:11:42;7.38;;;2.40;;
53549;SDS011;67273;52.914;-0.982;2023-01-30T15:14:17;9.07;;;2.53;;
53549;SDS011;67273;52.914;-0.982;2023-01-30T15:16:55;5.00;;;2.33;;
53549;SDS011;67273;52.914;-0.982;2023-01-30T15:19:31;6.03;;;2.60;;
53549;SDS011;67273;52.914;-0.982;2023-01-30T15:22:15;7.30;;;2.35;;
53549;SDS011;67273;52.914;-0.982;2023-01-30T15:24:57;5.13;;;2.35;;
53549;SDS011;67273;52.914;-0.982;2023-01-30T15:27:37;6.00;;;2.83;;